Weather History for KUVA - January, 2014

Change the Weather History Date:

Thursday, January 23, 2014

  Actual Average (KHDO) Record (KHDO)
Temperature  
Mean Temperature 44 °F -  
Max Temperature 59 °F 63 °F 86 °F (2000)
Min Temperature 30 °F 38 °F 30 °F (2003)
Degree Days  
Heating Degree Days 20    
Moisture  
Dew Point 41 °F    
Average Humidity 84    
Maximum Humidity 96    
Minimum Humidity 45    
Precipitation  
Precipitation 0.07 in - - ()
Sea Level Pressure  
Sea Level Pressure 30.26 in    
Wind  
Wind Speed 9 mph (NE)    
Max Wind Speed 20 mph    
Max Gust Speed 25 mph    
Visibility 8 miles    
Events Rain    
Averages and records for this station are not official NWS values.
T = Trace of Precipitation, MM = Missing Value Source: NWS Daily Summary

Daily Weather History Graph

Daily Weather History Graph

Search for Another Location

Airport or City:

Trip Planner

Search our weather history database for the weather conditions in past years. The results will help you decide how hot, cold, wet, or windy it might be!

Date:

Astronomy

Jan. 23, 2014 Rise Set
Actual Time 7:32 AM CST 6:09 PM CST
Civil Twilight 7:06 AM CST 6:35 PM CST
Nautical Twilight 6:38 AM CST 7:04 PM CST
Astronomical Twilight 6:09 AM CST 7:32 PM CST
Moon 12:09 AM CST (1/23) 11:44 AM CST (1/23)
Length of Visible Light 11h 28m
Length of Day
10h 37m
Waning Gibbous, 55% of the Moon is Illuminated
Jan 23
Waning Gibbous
Jan 23
Last Quarter
Jan 30
New
Feb 6
First Quarter
Feb 14
Full

Hourly Weather History & Observations

Time (CST) Temp. Windchill Dew Point Humidity Pressure Visibility Wind Dir Wind Speed Gust Speed Precip Events Conditions
12:15 AM 52.7 °F - 32.0 °F 45% 30.00 in 10.0 mi East 5.8 mph - N/A   Clear
12:35 AM 52.7 °F - 31.6 °F 45% 30.00 in 10.0 mi East 5.8 mph - N/A   Clear
12:55 AM 52.7 °F - 33.3 °F 48% 29.99 in 10.0 mi East 6.9 mph - N/A   Clear
1:15 AM 52.7 °F - 36.9 °F 55% 29.99 in 10.0 mi East 8.1 mph - N/A   Clear
1:35 AM 52.7 °F - 39.2 °F 60% 30.00 in 10.0 mi East 5.8 mph - N/A   Clear
1:55 AM 52.7 °F - 40.8 °F 64% 30.00 in 10.0 mi East 5.8 mph - N/A   Clear
2:15 AM 52.7 °F - 42.1 °F 67% 30.00 in 10.0 mi East 5.8 mph - N/A   Clear
2:35 AM 52.7 °F - 42.4 °F 68% 30.00 in 10.0 mi ENE 5.8 mph - N/A   Clear
2:55 AM 52.7 °F - 44.1 °F 72% 30.01 in 10.0 mi East 6.9 mph - N/A   Clear
3:15 AM 53.8 °F - 45.9 °F 75% 30.01 in 10.0 mi East 6.9 mph - N/A   Clear
3:35 AM 52.7 °F - 44.8 °F 74% 30.01 in 10.0 mi ENE 6.9 mph - N/A   Clear
3:55 AM 52.7 °F - 45.0 °F 75% 30.02 in 10.0 mi ENE 8.1 mph - N/A   Clear
4:15 AM 52.7 °F - 45.5 °F 76% 30.03 in 10.0 mi ENE 6.9 mph - N/A   Clear
4:35 AM 52.7 °F - 46.0 °F 78% 30.03 in 10.0 mi ENE 5.8 mph - N/A   Clear
4:55 AM 52.7 °F - 47.1 °F 81% 30.01 in 10.0 mi NE 8.1 mph - N/A Rain Light Rain
5:15 AM 52.7 °F - 47.3 °F 82% 30.04 in 10.0 mi NE 9.2 mph - N/A   Clear
5:35 AM 52.7 °F - 47.3 °F 82% 30.05 in 10.0 mi NE 6.9 mph - N/A   Clear
5:55 AM 52.7 °F - 47.3 °F 82% 30.07 in 10.0 mi NE 9.2 mph - N/A   Clear
6:15 AM 52.7 °F - 48.0 °F 84% 30.07 in 10.0 mi ENE 9.2 mph - N/A   Light Drizzle
6:35 AM 52.7 °F - 48.2 °F 85% 30.07 in 10.0 mi ENE 10.4 mph - N/A   Clear
6:55 AM 53.2 °F - 48.7 °F 85% 30.10 in 10.0 mi NE 9.2 mph - N/A   Mostly Cloudy
7:15 AM 54.5 °F - 50.2 °F 85% 30.10 in 10.0 mi ENE 10.4 mph - N/A   Mostly Cloudy
7:35 AM 55.4 °F - 50.9 °F 85% 30.10 in 10.0 mi ENE 8.1 mph - N/A   Scattered Clouds
7:55 AM 55.4 °F - 51.1 °F 85% 30.11 in 10.0 mi NE 10.4 mph - N/A   Mostly Cloudy
8:15 AM 55.4 °F - 50.9 °F 85% 30.12 in 10.0 mi ENE 9.2 mph - N/A   Overcast
8:55 AM 56.7 °F - 52.2 °F 85% 30.16 in 10.0 mi NE 9.2 mph - N/A   Overcast
9:15 AM 57.7 °F - 53.1 °F 84% 30.17 in 10.0 mi NE 10.4 mph - N/A   Overcast
9:35 AM 57.7 °F - 52.7 °F 83% 30.17 in 10.0 mi ENE 11.5 mph - N/A   Mostly Cloudy
9:55 AM 57.7 °F - 52.7 °F 83% 30.18 in 10.0 mi ENE 11.5 mph - N/A   Mostly Cloudy
10:15 AM 58.1 °F - 52.5 °F 82% 30.20 in 10.0 mi East 12.7 mph - N/A   Scattered Clouds
10:35 AM 59.0 °F - 53.2 °F 81% 30.22 in 10.0 mi ENE 9.2 mph - N/A   Scattered Clouds
10:55 AM 59.0 °F - 53.4 °F 82% 30.23 in 10.0 mi East 9.2 mph - N/A   Mostly Cloudy
11:15 AM 59.0 °F - 53.2 °F 81% 30.24 in 10.0 mi ENE 8.1 mph - N/A   Mostly Cloudy
11:35 AM 59.0 °F - 52.9 °F 80% 30.24 in 10.0 mi ENE 11.5 mph - N/A   Scattered Clouds
11:55 AM 57.7 °F - 54.5 °F 89% 30.24 in 5.0 mi ENE 8.1 mph - N/A Rain Rain
12:15 PM 50.7 °F - 47.3 °F 88% 30.25 in 5.0 mi NNE 16.1 mph 24.2 mph 0.02 in Rain Rain
12:35 PM 47.7 °F - 45.1 °F 91% 30.25 in 5.0 mi NNE 16.1 mph - 0.03 in Rain Light Rain
12:55 PM 47.5 °F - 44.2 °F 89% 30.25 in 7.0 mi NNE 19.6 mph 25.3 mph 0.03 in   Light Drizzle
1:15 PM 45.1 °F 39.1 °F 41.4 °F 87% 30.27 in 5.0 mi NNE 12.7 mph - N/A   Drizzle
1:35 PM 43.7 °F 36.9 °F 39.7 °F 86% 30.27 in 5.0 mi NNE 13.8 mph 20.7 mph N/A   Light Drizzle
2:15 PM 41.7 °F 34.8 °F 39.4 °F 91% 30.29 in 2.5 mi NNE 12.7 mph 18.4 mph N/A   Drizzle
2:35 PM 41.0 °F 33.1 °F 38.8 °F 92% 30.30 in 4.0 mi NNE 15.0 mph - N/A   Drizzle
2:55 PM 40.1 °F 31.3 °F 38.5 °F 94% 30.29 in 4.0 mi NNE 17.3 mph 25.3 mph N/A Rain Light Rain
3:15 PM 40.1 °F 31.6 °F 38.3 °F 93% 30.30 in 10.0 mi NE 16.1 mph - N/A   Overcast
3:35 PM 38.8 °F 30.8 °F 36.7 °F 92% 30.31 in 10.0 mi NNE 13.8 mph - N/A   Overcast
3:55 PM 38.7 °F 29.5 °F 35.8 °F 89% 30.33 in 10.0 mi NNE 17.3 mph 25.3 mph N/A   Overcast
4:15 PM 38.5 °F 29.6 °F 34.7 °F 86% 30.35 in 10.0 mi NNE 16.1 mph 23.0 mph N/A   Mostly Cloudy
5:15 PM 37.6 °F 31.6 °F 35.8 °F 93% 30.41 in 5.0 mi NNE 8.1 mph - N/A   Drizzle
5:35 PM 36.9 °F 29.1 °F 35.4 °F 95% 30.43 in 4.0 mi NNE 11.5 mph - N/A   Drizzle
5:55 PM 35.4 °F 29.0 °F 34.0 °F 94% 30.45 in 5.0 mi NE 8.1 mph - 0.01 in   Drizzle
6:15 PM 35.2 °F 29.5 °F 34.0 °F 95% 30.46 in 5.0 mi NNE 6.9 mph - 0.01 in   Heavy Drizzle
6:35 PM 35.1 °F 27.9 °F 34.0 °F 96% 30.48 in 5.0 mi NNE 9.2 mph - 0.02 in   Heavy Drizzle
6:55 PM 35.1 °F 26.9 °F 34.0 °F 96% 30.50 in 5.0 mi NE 11.5 mph - 0.03 in   Drizzle
7:15 PM 35.1 °F 28.6 °F 34.0 °F 96% 30.51 in 5.0 mi NNE 8.1 mph - N/A   Drizzle
7:35 PM 34.2 °F 26.8 °F 32.9 °F 95% 30.53 in 5.0 mi NNE 9.2 mph - N/A   Light Drizzle
7:55 PM 33.8 °F 25.8 °F 32.5 °F 95% 30.53 in 7.0 mi NNE 10.4 mph - N/A   Mostly Cloudy
8:15 PM 33.8 °F 26.4 °F 32.5 °F 95% 30.55 in 5.0 mi NNE 9.2 mph - N/A   Mostly Cloudy
8:35 PM 32.5 °F 23.7 °F 30.7 °F 93% 30.57 in 10.0 mi NNE 11.5 mph 19.6 mph N/A   Mostly Cloudy
8:55 PM 32.5 °F 23.7 °F 30.2 °F 91% 30.58 in 10.0 mi NNE 11.5 mph - N/A   Mostly Cloudy
9:15 PM 32.5 °F 24.2 °F 29.8 °F 90% 30.59 in 10.0 mi NNE 10.4 mph 17.3 mph N/A   Mostly Cloudy
9:55 PM 32.5 °F 24.8 °F 30.6 °F 92% 30.62 in 7.0 mi NE 9.2 mph - N/A   Overcast
10:15 PM 32.5 °F 27.1 °F 31.1 °F 94% 30.63 in 7.0 mi NNE 5.8 mph - N/A   Overcast
10:35 PM 30.2 °F 21.3 °F 28.4 °F 93% 30.64 in 7.0 mi North 10.4 mph - N/A   Overcast
10:55 PM 30.2 °F 22.6 °F 27.9 °F 91% 30.66 in 10.0 mi North 8.1 mph 16.1 mph N/A   Light Freezing Rain
11:15 PM 30.2 °F 21.3 °F 28.2 °F 92% 30.66 in 5.0 mi North 10.4 mph - N/A   Light Freezing Rain
11:35 PM 30.2 °F 21.9 °F 28.2 °F 92% 30.68 in 7.0 mi North 9.2 mph - N/A   Light Freezing Rain
11:55 PM 30.2 °F 22.6 °F 27.5 °F 90% 30.68 in 10.0 mi North 8.1 mph - N/A   Overcast